sensor_id;sensor_type;location;lat;lon;timestamp;P1;durP1;ratioP1;P2;durP2;ratioP2
58306;SDS011;44116;50.884;4.768;2024-02-16T00:01:22;4.9;;;2.2;;
58306;SDS011;44116;50.884;4.768;2024-02-16T00:03:22;6.9;;;2.4;;
58306;SDS011;44116;50.884;4.768;2024-02-16T00:05:22;3.9;;;2.2;;
58306;SDS011;44116;50.884;4.768;2024-02-16T00:07:22;4.7;;;2.3;;
58306;SDS011;44116;50.884;4.768;2024-02-16T00:09:22;5.0;;;2.6;;
58306;SDS011;44116;50.884;4.768;2024-02-16T00:11:21;4.6;;;2.1;;
58306;SDS011;44116;50.884;4.768;2024-02-16T00:13:21;5.3;;;2.3;;
58306;SDS011;44116;50.884;4.768;2024-02-16T00:17:21;5.2;;;2.5;;
58306;SDS011;44116;50.884;4.768;2024-02-16T00:19:20;5.0;;;2.2;;
58306;SDS011;44116;50.884;4.768;2024-02-16T00:23:20;5.2;;;2.4;;
58306;SDS011;44116;50.884;4.768;2024-02-16T00:25:20;5.3;;;2.5;;
58306;SDS011;44116;50.884;4.768;2024-02-16T00:27:20;6.5;;;2.7;;
58306;SDS011;44116;50.884;4.768;2024-02-16T00:29:19;5.1;;;2.3;;
58306;SDS011;44116;50.884;4.768;2024-02-16T00:35:19;5.5;;;2.7;;
58306;SDS011;44116;50.884;4.768;2024-02-16T00:37:19;4.1;;;2.5;;
58306;SDS011;44116;50.884;4.768;2024-02-16T00:39:18;5.1;;;2.7;;
58306;SDS011;44116;50.884;4.768;2024-02-16T00:41:19;5.5;;;2.2;;
58306;SDS011;44116;50.884;4.768;2024-02-16T00:43:18;4.7;;;2.3;;
58306;SDS011;44116;50.884;4.768;2024-02-16T00:45:18;6.5;;;2.5;;
58306;SDS011;44116;50.884;4.768;2024-02-16T00:47:17;4.9;;;2.8;;
58306;SDS011;44116;50.884;4.768;2024-02-16T00:49:17;5.9;;;2.5;;
58306;SDS011;44116;50.884;4.768;2024-02-16T00:53:17;5.9;;;2.8;;
58306;SDS011;44116;50.884;4.768;2024-02-16T00:55:16;3.7;;;2.1;;
58306;SDS011;44116;50.884;4.768;2024-02-16T00:57:16;6.2;;;2.4;;
58306;SDS011;44116;50.884;4.768;2024-02-16T00:59:16;4.9;;;2.3;;
58306;SDS011;44116;50.884;4.768;2024-02-16T01:01:16;7.3;;;2.7;;
58306;SDS011;44116;50.884;4.768;2024-02-16T01:03:16;5.5;;;2.5;;
58306;SDS011;44116;50.884;4.768;2024-02-16T01:05:15;5.4;;;2.3;;
58306;SDS011;44116;50.884;4.768;2024-02-16T01:07:15;4.8;;;2.2;;
58306;SDS011;44116;50.884;4.768;2024-02-16T01:09:15;5.7;;;2.4;;
58306;SDS011;44116;50.884;4.768;2024-02-16T01:15:15;6.0;;;2.5;;
58306;SDS011;44116;50.884;4.768;2024-02-16T01:19:14;5.3;;;2.3;;
58306;SDS011;44116;50.884;4.768;2024-02-16T01:23:13;4.7;;;2.4;;
58306;SDS011;44116;50.884;4.768;2024-02-16T01:25:13;5.7;;;2.6;;
58306;SDS011;44116;50.884;4.768;2024-02-16T01:27:13;5.8;;;2.4;;
58306;SDS011;44116;50.884;4.768;2024-02-16T01:31:12;7.0;;;2.9;;
58306;SDS011;44116;50.884;4.768;2024-02-16T01:33:12;5.0;;;2.7;;
58306;SDS011;44116;50.884;4.768;2024-02-16T01:35:12;3.7;;;2.3;;
58306;SDS011;44116;50.884;4.768;2024-02-16T01:37:12;5.9;;;2.7;;
58306;SDS011;44116;50.884;4.768;2024-02-16T01:39:11;5.3;;;2.6;;
58306;SDS011;44116;50.884;4.768;2024-02-16T01:41:11;7.8;;;2.8;;
58306;SDS011;44116;50.884;4.768;2024-02-16T01:43:11;4.6;;;2.4;;
58306;SDS011;44116;50.884;4.768;2024-02-16T01:45:11;4.8;;;2.5;;
58306;SDS011;44116;50.884;4.768;2024-02-16T01:47:10;5.6;;;2.9;;
58306;SDS011;44116;50.884;4.768;2024-02-16T01:49:11;4.4;;;2.5;;
58306;SDS011;44116;50.884;4.768;2024-02-16T01:51:11;6.2;;;2.7;;
58306;SDS011;44116;50.884;4.768;2024-02-16T01:55:11;4.3;;;2.5;;
58306;SDS011;44116;50.884;4.768;2024-02-16T01:57:09;4.9;;;2.6;;
58306;SDS011;44116;50.884;4.768;2024-02-16T01:59:09;6.8;;;2.7;;
58306;SDS011;44116;50.884;4.768;2024-02-16T02:01:09;4.9;;;2.4;;
58306;SDS011;44116;50.884;4.768;2024-02-16T02:03:09;6.1;;;2.3;;
58306;SDS011;44116;50.884;4.768;2024-02-16T02:05:08;5.8;;;2.8;;
58306;SDS011;44116;50.884;4.768;2024-02-16T02:07:12;4.8;;;2.5;;
58306;SDS011;44116;50.884;4.768;2024-02-16T02:09:08;5.9;;;2.8;;
58306;SDS011;44116;50.884;4.768;2024-02-16T02:11:08;6.7;;;2.6;;
58306;SDS011;44116;50.884;4.768;2024-02-16T02:13:07;6.2;;;2.5;;
58306;SDS011;44116;50.884;4.768;2024-02-16T02:15:07;5.6;;;2.3;;
58306;SDS011;44116;50.884;4.768;2024-02-16T02:17:07;6.7;;;2.7;;
58306;SDS011;44116;50.884;4.768;2024-02-16T02:19:07;6.6;;;2.9;;
58306;SDS011;44116;50.884;4.768;2024-02-16T02:21:06;4.1;;;2.4;;
58306;SDS011;44116;50.884;4.768;2024-02-16T02:23:06;6.0;;;2.5;;
58306;SDS011;44116;50.884;4.768;2024-02-16T02:25:06;8.3;;;2.9;;
58306;SDS011;44116;50.884;4.768;2024-02-16T02:29:05;4.6;;;2.5;;
58306;SDS011;44116;50.884;4.768;2024-02-16T02:31:05;6.9;;;3.1;;
58306;SDS011;44116;50.884;4.768;2024-02-16T02:33:05;5.3;;;2.4;;
58306;SDS011;44116;50.884;4.768;2024-02-16T02:35:05;5.5;;;2.7;;
58306;SDS011;44116;50.884;4.768;2024-02-16T02:37:05;5.6;;;2.9;;
58306;SDS011;44116;50.884;4.768;2024-02-16T02:39:04;6.0;;;2.8;;
58306;SDS011;44116;50.884;4.768;2024-02-16T02:43:04;6.2;;;2.6;;
58306;SDS011;44116;50.884;4.768;2024-02-16T02:45:04;5.3;;;2.9;;
58306;SDS011;44116;50.884;4.768;2024-02-16T02:47:03;7.0;;;3.0;;
58306;SDS011;44116;50.884;4.768;2024-02-16T02:51:03;5.7;;;3.1;;
58306;SDS011;44116;50.884;4.768;2024-02-16T02:53:02;6.0;;;2.8;;
58306;SDS011;44116;50.884;4.768;2024-02-16T02:57:02;8.3;;;3.2;;
58306;SDS011;44116;50.884;4.768;2024-02-16T02:59:02;4.9;;;2.6;;
58306;SDS011;44116;50.884;4.768;2024-02-16T03:01:01;5.9;;;2.8;;
58306;SDS011;44116;50.884;4.768;2024-02-16T03:03:01;6.3;;;2.9;;
58306;SDS011;44116;50.884;4.768;2024-02-16T03:05:01;10.0;;;3.2;;
58306;SDS011;44116;50.884;4.768;2024-02-16T03:07:01;4.6;;;2.7;;
58306;SDS011;44116;50.884;4.768;2024-02-16T03:11:00;6.1;;;3.0;;
58306;SDS011;44116;50.884;4.768;2024-02-16T03:13:00;5.5;;;2.8;;
58306;SDS011;44116;50.884;4.768;2024-02-16T03:15:00;5.3;;;2.7;;
58306;SDS011;44116;50.884;4.768;2024-02-16T03:18:59;6.6;;;2.6;;
58306;SDS011;44116;50.884;4.768;2024-02-16T03:20:59;6.8;;;2.7;;
58306;SDS011;44116;50.884;4.768;2024-02-16T03:22:59;5.0;;;2.6;;
58306;SDS011;44116;50.884;4.768;2024-02-16T03:24:58;6.6;;;2.7;;
58306;SDS011;44116;50.884;4.768;2024-02-16T03:27:09;6.7;;;2.9;;
58306;SDS011;44116;50.884;4.768;2024-02-16T03:28:58;6.6;;;3.0;;
58306;SDS011;44116;50.884;4.768;2024-02-16T03:30:58;6.9;;;3.2;;
58306;SDS011;44116;50.884;4.768;2024-02-16T03:32:57;6.7;;;2.9;;
58306;SDS011;44116;50.884;4.768;2024-02-16T03:34:57;5.4;;;2.8;;
58306;SDS011;44116;50.884;4.768;2024-02-16T03:36:57;6.7;;;2.9;;
58306;SDS011;44116;50.884;4.768;2024-02-16T03:44:56;5.2;;;2.7;;
58306;SDS011;44116;50.884;4.768;2024-02-16T03:46:56;5.4;;;2.6;;
58306;SDS011;44116;50.884;4.768;2024-02-16T03:48:56;7.0;;;2.7;;
58306;SDS011;44116;50.884;4.768;2024-02-16T03:50:55;5.6;;;2.5;;
58306;SDS011;44116;50.884;4.768;2024-02-16T03:54:55;6.0;;;2.9;;
58306;SDS011;44116;50.884;4.768;2024-02-16T03:56:55;7.2;;;2.7;;
58306;SDS011;44116;50.884;4.768;2024-02-16T03:58:55;5.9;;;2.9;;
58306;SDS011;44116;50.884;4.768;2024-02-16T04:00:54;6.4;;;2.8;;
58306;SDS011;44116;50.884;4.768;2024-02-16T04:02:54;5.6;;;3.0;;
58306;SDS011;44116;50.884;4.768;2024-02-16T04:04:54;5.7;;;2.9;;
58306;SDS011;44116;50.884;4.768;2024-02-16T04:06:54;6.7;;;2.7;;
58306;SDS011;44116;50.884;4.768;2024-02-16T04:14:53;7.1;;;2.6;;
58306;SDS011;44116;50.884;4.768;2024-02-16T04:16:53;5.2;;;3.2;;
58306;SDS011;44116;50.884;4.768;2024-02-16T04:18:52;6.2;;;2.9;;
58306;SDS011;44116;50.884;4.768;2024-02-16T04:20:52;6.6;;;3.2;;
58306;SDS011;44116;50.884;4.768;2024-02-16T04:22:52;6.3;;;2.8;;
58306;SDS011;44116;50.884;4.768;2024-02-16T04:24:52;8.0;;;3.1;;
58306;SDS011;44116;50.884;4.768;2024-02-16T04:26:51;7.7;;;2.7;;
58306;SDS011;44116;50.884;4.768;2024-02-16T04:28:51;6.3;;;3.1;;
58306;SDS011;44116;50.884;4.768;2024-02-16T04:30:51;6.6;;;2.8;;
58306;SDS011;44116;50.884;4.768;2024-02-16T04:32:51;6.7;;;2.6;;
58306;SDS011;44116;50.884;4.768;2024-02-16T04:34:51;8.9;;;3.1;;
58306;SDS011;44116;50.884;4.768;2024-02-16T04:36:50;5.3;;;2.8;;
58306;SDS011;44116;50.884;4.768;2024-02-16T04:44:49;7.7;;;3.1;;
58306;SDS011;44116;50.884;4.768;2024-02-16T04:46:50;5.4;;;3.0;;
58306;SDS011;44116;50.884;4.768;2024-02-16T04:48:49;9.9;;;3.4;;
58306;SDS011;44116;50.884;4.768;2024-02-16T04:50:49;8.0;;;3.0;;
58306;SDS011;44116;50.884;4.768;2024-02-16T04:52:48;6.1;;;2.8;;
58306;SDS011;44116;50.884;4.768;2024-02-16T04:54:48;6.5;;;2.6;;
58306;SDS011;44116;50.884;4.768;2024-02-16T04:56:48;6.6;;;2.7;;
58306;SDS011;44116;50.884;4.768;2024-02-16T04:58:48;6.1;;;3.0;;
58306;SDS011;44116;50.884;4.768;2024-02-16T05:00:48;6.1;;;3.1;;
58306;SDS011;44116;50.884;4.768;2024-02-16T05:02:47;6.1;;;2.8;;
58306;SDS011;44116;50.884;4.768;2024-02-16T05:04:47;7.0;;;3.1;;
58306;SDS011;44116;50.884;4.768;2024-02-16T05:06:47;6.2;;;2.9;;
58306;SDS011;44116;50.884;4.768;2024-02-16T05:08:47;7.7;;;2.8;;
58306;SDS011;44116;50.884;4.768;2024-02-16T05:12:46;6.4;;;3.2;;
58306;SDS011;44116;50.884;4.768;2024-02-16T05:14:47;6.4;;;2.9;;
58306;SDS011;44116;50.884;4.768;2024-02-16T05:16:46;6.3;;;3.3;;
58306;SDS011;44116;50.884;4.768;2024-02-16T05:18:46;6.3;;;2.9;;
58306;SDS011;44116;50.884;4.768;2024-02-16T05:20:45;5.6;;;2.8;;
58306;SDS011;44116;50.884;4.768;2024-02-16T05:22:46;7.8;;;3.2;;
58306;SDS011;44116;50.884;4.768;2024-02-16T05:24:46;8.9;;;3.1;;
58306;SDS011;44116;50.884;4.768;2024-02-16T05:26:45;8.1;;;3.3;;
58306;SDS011;44116;50.884;4.768;2024-02-16T05:28:45;7.2;;;3.0;;
58306;SDS011;44116;50.884;4.768;2024-02-16T05:30:45;7.3;;;3.2;;
58306;SDS011;44116;50.884;4.768;2024-02-16T05:32:44;7.6;;;2.9;;
58306;SDS011;44116;50.884;4.768;2024-02-16T05:36:44;5.7;;;3.0;;
58306;SDS011;44116;50.884;4.768;2024-02-16T05:40:43;8.8;;;3.1;;
58306;SDS011;44116;50.884;4.768;2024-02-16T05:42:43;8.1;;;3.4;;
58306;SDS011;44116;50.884;4.768;2024-02-16T05:44:43;6.3;;;3.2;;
58306;SDS011;44116;50.884;4.768;2024-02-16T05:46:44;7.6;;;3.1;;
58306;SDS011;44116;50.884;4.768;2024-02-16T05:48:44;6.1;;;3.3;;
58306;SDS011;44116;50.884;4.768;2024-02-16T05:50:42;5.5;;;2.9;;
58306;SDS011;44116;50.884;4.768;2024-02-16T05:52:43;7.4;;;3.0;;
58306;SDS011;44116;50.884;4.768;2024-02-16T06:00:41;6.6;;;3.3;;
58306;SDS011;44116;50.884;4.768;2024-02-16T06:02:41;8.7;;;3.1;;
58306;SDS011;44116;50.884;4.768;2024-02-16T06:04:41;6.1;;;3.2;;
58306;SDS011;44116;50.884;4.768;2024-02-16T06:06:40;8.3;;;3.1;;
58306;SDS011;44116;50.884;4.768;2024-02-16T06:08:40;5.6;;;3.0;;
58306;SDS011;44116;50.884;4.768;2024-02-16T06:12:40;8.5;;;3.1;;
58306;SDS011;44116;50.884;4.768;2024-02-16T06:14:40;7.2;;;3.5;;
58306;SDS011;44116;50.884;4.768;2024-02-16T06:16:39;8.5;;;3.4;;
58306;SDS011;44116;50.884;4.768;2024-02-16T06:18:39;9.4;;;3.3;;
58306;SDS011;44116;50.884;4.768;2024-02-16T06:20:39;6.6;;;3.2;;
58306;SDS011;44116;50.884;4.768;2024-02-16T06:22:39;6.1;;;3.1;;
58306;SDS011;44116;50.884;4.768;2024-02-16T06:24:38;8.7;;;3.3;;
58306;SDS011;44116;50.884;4.768;2024-02-16T06:26:38;8.4;;;3.4;;
58306;SDS011;44116;50.884;4.768;2024-02-16T06:28:38;6.5;;;3.5;;
58306;SDS011;44116;50.884;4.768;2024-02-16T06:30:38;7.7;;;3.0;;
58306;SDS011;44116;50.884;4.768;2024-02-16T06:34:37;8.3;;;3.1;;
58306;SDS011;44116;50.884;4.768;2024-02-16T06:36:37;7.7;;;3.2;;
58306;SDS011;44116;50.884;4.768;2024-02-16T06:40:37;7.1;;;3.0;;
58306;SDS011;44116;50.884;4.768;2024-02-16T06:42:37;7.8;;;3.2;;
58306;SDS011;44116;50.884;4.768;2024-02-16T06:44:36;8.3;;;3.3;;
58306;SDS011;44116;50.884;4.768;2024-02-16T06:46:36;5.7;;;3.0;;
58306;SDS011;44116;50.884;4.768;2024-02-16T06:48:36;6.1;;;3.1;;
58306;SDS011;44116;50.884;4.768;2024-02-16T06:50:35;7.8;;;3.3;;
58306;SDS011;44116;50.884;4.768;2024-02-16T06:54:35;6.7;;;3.1;;
58306;SDS011;44116;50.884;4.768;2024-02-16T06:58:35;7.2;;;3.3;;
58306;SDS011;44116;50.884;4.768;2024-02-16T07:00:34;6.6;;;3.5;;
58306;SDS011;44116;50.884;4.768;2024-02-16T07:04:34;9.4;;;3.6;;
58306;SDS011;44116;50.884;4.768;2024-02-16T07:06:34;9.2;;;3.0;;
58306;SDS011;44116;50.884;4.768;2024-02-16T07:08:34;6.5;;;3.3;;
58306;SDS011;44116;50.884;4.768;2024-02-16T07:10:33;7.4;;;3.4;;
58306;SDS011;44116;50.884;4.768;2024-02-16T07:12:33;10.8;;;3.5;;
58306;SDS011;44116;50.884;4.768;2024-02-16T07:14:33;9.3;;;4.0;;
58306;SDS011;44116;50.884;4.768;2024-02-16T07:16:33;9.3;;;3.4;;
58306;SDS011;44116;50.884;4.768;2024-02-16T07:18:33;9.4;;;3.2;;
58306;SDS011;44116;50.884;4.768;2024-02-16T07:20:32;7.7;;;3.4;;
58306;SDS011;44116;50.884;4.768;2024-02-16T07:24:32;9.4;;;3.5;;
58306;SDS011;44116;50.884;4.768;2024-02-16T07:26:32;7.6;;;3.1;;
58306;SDS011;44116;50.884;4.768;2024-02-16T07:28:31;8.7;;;3.6;;
58306;SDS011;44116;50.884;4.768;2024-02-16T07:30:31;8.0;;;3.2;;
58306;SDS011;44116;50.884;4.768;2024-02-16T07:32:31;8.6;;;3.3;;
58306;SDS011;44116;50.884;4.768;2024-02-16T07:34:31;6.5;;;3.4;;
58306;SDS011;44116;50.884;4.768;2024-02-16T07:36:31;6.5;;;3.2;;
58306;SDS011;44116;50.884;4.768;2024-02-16T07:38:30;6.8;;;3.4;;
58306;SDS011;44116;50.884;4.768;2024-02-16T07:40:30;8.1;;;3.8;;
58306;SDS011;44116;50.884;4.768;2024-02-16T07:42:30;9.2;;;3.5;;
58306;SDS011;44116;50.884;4.768;2024-02-16T07:44:30;7.4;;;3.3;;
58306;SDS011;44116;50.884;4.768;2024-02-16T07:46:30;6.9;;;3.2;;
58306;SDS011;44116;50.884;4.768;2024-02-16T07:48:29;9.8;;;3.8;;
58306;SDS011;44116;50.884;4.768;2024-02-16T07:50:29;9.1;;;3.7;;
58306;SDS011;44116;50.884;4.768;2024-02-16T07:58:28;11.5;;;3.5;;
58306;SDS011;44116;50.884;4.768;2024-02-16T08:00:28;12.3;;;3.6;;
58306;SDS011;44116;50.884;4.768;2024-02-16T08:02:28;7.5;;;3.2;;
58306;SDS011;44116;50.884;4.768;2024-02-16T08:04:28;12.4;;;3.8;;
58306;SDS011;44116;50.884;4.768;2024-02-16T08:06:27;8.6;;;4.0;;
58306;SDS011;44116;50.884;4.768;2024-02-16T08:08:27;9.7;;;3.6;;
58306;SDS011;44116;50.884;4.768;2024-02-16T08:10:27;9.8;;;4.0;;
58306;SDS011;44116;50.884;4.768;2024-02-16T08:12:27;10.3;;;3.7;;
58306;SDS011;44116;50.884;4.768;2024-02-16T08:14:27;7.9;;;3.8;;
58306;SDS011;44116;50.884;4.768;2024-02-16T08:16:27;11.8;;;3.6;;
58306;SDS011;44116;50.884;4.768;2024-02-16T08:18:26;10.6;;;3.8;;
58306;SDS011;44116;50.884;4.768;2024-02-16T08:20:26;9.7;;;4.0;;
58306;SDS011;44116;50.884;4.768;2024-02-16T08:22:26;8.9;;;4.1;;
58306;SDS011;44116;50.884;4.768;2024-02-16T08:24:26;8.3;;;4.2;;
58306;SDS011;44116;50.884;4.768;2024-02-16T08:26:26;9.3;;;3.9;;
58306;SDS011;44116;50.884;4.768;2024-02-16T08:28:25;9.0;;;4.5;;
58306;SDS011;44116;50.884;4.768;2024-02-16T08:30:25;11.6;;;5.2;;
58306;SDS011;44116;50.884;4.768;2024-02-16T08:32:25;11.5;;;4.9;;
58306;SDS011;44116;50.884;4.768;2024-02-16T08:34:24;11.7;;;4.5;;
58306;SDS011;44116;50.884;4.768;2024-02-16T08:36:24;10.2;;;4.8;;
58306;SDS011;44116;50.884;4.768;2024-02-16T08:38:24;10.0;;;4.4;;
58306;SDS011;44116;50.884;4.768;2024-02-16T08:40:24;9.1;;;4.6;;
58306;SDS011;44116;50.884;4.768;2024-02-16T08:42:24;10.8;;;4.4;;
58306;SDS011;44116;50.884;4.768;2024-02-16T08:44:24;8.8;;;4.1;;
58306;SDS011;44116;50.884;4.768;2024-02-16T08:46:23;11.4;;;4.0;;
58306;SDS011;44116;50.884;4.768;2024-02-16T08:48:24;11.8;;;4.6;;
58306;SDS011;44116;50.884;4.768;2024-02-16T08:50:23;9.1;;;4.4;;
58306;SDS011;44116;50.884;4.768;2024-02-16T08:54:22;11.1;;;4.2;;
58306;SDS011;44116;50.884;4.768;2024-02-16T08:56:22;8.6;;;4.3;;
58306;SDS011;44116;50.884;4.768;2024-02-16T08:58:22;10.3;;;4.2;;
58306;SDS011;44116;50.884;4.768;2024-02-16T09:00:22;10.0;;;4.4;;
58306;SDS011;44116;50.884;4.768;2024-02-16T09:02:21;10.4;;;4.2;;
58306;SDS011;44116;50.884;4.768;2024-02-16T09:04:21;9.6;;;4.4;;
58306;SDS011;44116;50.884;4.768;2024-02-16T09:06:21;11.0;;;4.3;;
58306;SDS011;44116;50.884;4.768;2024-02-16T09:08:21;10.5;;;4.2;;
58306;SDS011;44116;50.884;4.768;2024-02-16T09:12:20;10.6;;;4.6;;
58306;SDS011;44116;50.884;4.768;2024-02-16T09:14:20;11.6;;;4.2;;
58306;SDS011;44116;50.884;4.768;2024-02-16T09:16:20;10.6;;;4.4;;
58306;SDS011;44116;50.884;4.768;2024-02-16T09:18:20;8.6;;;4.1;;
58306;SDS011;44116;50.884;4.768;2024-02-16T09:20:20;13.3;;;4.5;;
58306;SDS011;44116;50.884;4.768;2024-02-16T09:22:19;11.6;;;4.2;;
58306;SDS011;44116;50.884;4.768;2024-02-16T09:24:19;9.4;;;4.3;;
58306;SDS011;44116;50.884;4.768;2024-02-16T09:26:19;8.4;;;4.5;;
58306;SDS011;44116;50.884;4.768;2024-02-16T09:28:19;10.0;;;4.2;;
58306;SDS011;44116;50.884;4.768;2024-02-16T09:30:18;10.3;;;4.4;;
58306;SDS011;44116;50.884;4.768;2024-02-16T09:32:18;9.4;;;4.1;;
58306;SDS011;44116;50.884;4.768;2024-02-16T09:34:18;9.9;;;3.9;;
58306;SDS011;44116;50.884;4.768;2024-02-16T09:36:18;8.8;;;4.4;;
58306;SDS011;44116;50.884;4.768;2024-02-16T09:38:18;7.1;;;4.3;;
58306;SDS011;44116;50.884;4.768;2024-02-16T09:40:17;8.4;;;4.1;;
58306;SDS011;44116;50.884;4.768;2024-02-16T09:42:17;10.8;;;4.4;;
58306;SDS011;44116;50.884;4.768;2024-02-16T09:44:17;10.0;;;4.3;;
58306;SDS011;44116;50.884;4.768;2024-02-16T09:46:17;11.9;;;4.7;;
58306;SDS011;44116;50.884;4.768;2024-02-16T09:48:17;9.8;;;4.4;;
58306;SDS011;44116;50.884;4.768;2024-02-16T09:50:16;11.4;;;4.9;;
58306;SDS011;44116;50.884;4.768;2024-02-16T09:52:16;12.0;;;4.6;;
58306;SDS011;44116;50.884;4.768;2024-02-16T09:54:16;11.2;;;4.9;;
58306;SDS011;44116;50.884;4.768;2024-02-16T09:56:16;11.6;;;4.6;;
58306;SDS011;44116;50.884;4.768;2024-02-16T09:58:16;9.6;;;4.3;;
58306;SDS011;44116;50.884;4.768;2024-02-16T10:00:16;10.3;;;4.8;;
58306;SDS011;44116;50.884;4.768;2024-02-16T10:02:15;13.1;;;5.1;;
58306;SDS011;44116;50.884;4.768;2024-02-16T10:04:15;13.3;;;4.9;;
58306;SDS011;44116;50.884;4.768;2024-02-16T10:06:16;9.7;;;4.4;;
58306;SDS011;44116;50.884;4.768;2024-02-16T10:08:15;10.8;;;4.8;;
58306;SDS011;44116;50.884;4.768;2024-02-16T10:12:18;14.8;;;5.3;;
58306;SDS011;44116;50.884;4.768;2024-02-16T10:14:14;11.9;;;5.5;;
58306;SDS011;44116;50.884;4.768;2024-02-16T10:16:14;10.3;;;5.2;;
58306;SDS011;44116;50.884;4.768;2024-02-16T10:18:13;11.5;;;5.0;;
58306;SDS011;44116;50.884;4.768;2024-02-16T10:20:18;11.0;;;4.8;;
58306;SDS011;44116;50.884;4.768;2024-02-16T10:22:16;10.6;;;5.2;;
58306;SDS011;44116;50.884;4.768;2024-02-16T10:24:13;14.3;;;5.4;;
58306;SDS011;44116;50.884;4.768;2024-02-16T10:26:12;11.7;;;5.5;;
58306;SDS011;44116;50.884;4.768;2024-02-16T10:28:12;15.0;;;5.8;;
58306;SDS011;44116;50.884;4.768;2024-02-16T10:30:12;14.3;;;6.2;;
58306;SDS011;44116;50.884;4.768;2024-02-16T10:32:13;12.2;;;5.7;;
58306;SDS011;44116;50.884;4.768;2024-02-16T10:34:12;14.3;;;6.2;;
58306;SDS011;44116;50.884;4.768;2024-02-16T10:36:12;12.9;;;6.0;;
58306;SDS011;44116;50.884;4.768;2024-02-16T10:38:11;19.3;;;6.4;;
58306;SDS011;44116;50.884;4.768;2024-02-16T10:40:13;14.5;;;6.0;;
58306;SDS011;44116;50.884;4.768;2024-02-16T10:44:10;15.6;;;6.8;;
58306;SDS011;44116;50.884;4.768;2024-02-16T10:48:10;12.8;;;6.4;;
58306;SDS011;44116;50.884;4.768;2024-02-16T10:50:10;14.0;;;6.3;;
58306;SDS011;44116;50.884;4.768;2024-02-16T10:54:10;16.6;;;6.7;;
58306;SDS011;44116;50.884;4.768;2024-02-16T10:56:09;15.1;;;6.4;;
58306;SDS011;44116;50.884;4.768;2024-02-16T10:58:10;15.4;;;6.6;;
58306;SDS011;44116;50.884;4.768;2024-02-16T11:02:10;15.8;;;6.9;;
58306;SDS011;44116;50.884;4.768;2024-02-16T11:04:11;15.3;;;6.6;;
58306;SDS011;44116;50.884;4.768;2024-02-16T11:08:12;15.6;;;6.5;;
58306;SDS011;44116;50.884;4.768;2024-02-16T11:10:12;16.7;;;6.6;;
58306;SDS011;44116;50.884;4.768;2024-02-16T11:12:08;14.4;;;6.8;;
58306;SDS011;44116;50.884;4.768;2024-02-16T11:14:14;16.0;;;6.9;;
58306;SDS011;44116;50.884;4.768;2024-02-16T11:16:08;16.7;;;6.8;;
58306;SDS011;44116;50.884;4.768;2024-02-16T11:18:10;14.0;;;7.0;;
58306;SDS011;44116;50.884;4.768;2024-02-16T11:20:07;18.9;;;7.3;;
58306;SDS011;44116;50.884;4.768;2024-02-16T11:22:07;16.4;;;7.1;;
58306;SDS011;44116;50.884;4.768;2024-02-16T11:24:06;15.3;;;7.0;;
58306;SDS011;44116;50.884;4.768;2024-02-16T11:26:10;15.9;;;6.6;;
58306;SDS011;44116;50.884;4.768;2024-02-16T11:28:06;18.7;;;7.3;;
58306;SDS011;44116;50.884;4.768;2024-02-16T11:30:06;14.4;;;6.7;;
58306;SDS011;44116;50.884;4.768;2024-02-16T11:32:06;16.6;;;7.2;;
58306;SDS011;44116;50.884;4.768;2024-02-16T11:36:05;16.8;;;7.0;;
58306;SDS011;44116;50.884;4.768;2024-02-16T11:38:05;15.4;;;6.7;;
58306;SDS011;44116;50.884;4.768;2024-02-16T11:42:05;14.5;;;7.0;;
58306;SDS011;44116;50.884;4.768;2024-02-16T11:44:04;14.6;;;6.9;;
58306;SDS011;44116;50.884;4.768;2024-02-16T11:46:11;17.7;;;7.2;;
58306;SDS011;44116;50.884;4.768;2024-02-16T11:48:04;14.2;;;6.9;;
58306;SDS011;44116;50.884;4.768;2024-02-16T11:50:05;14.7;;;6.8;;
58306;SDS011;44116;50.884;4.768;2024-02-16T11:52:04;15.0;;;7.0;;
58306;SDS011;44116;50.884;4.768;2024-02-16T11:54:04;15.8;;;6.8;;
58306;SDS011;44116;50.884;4.768;2024-02-16T11:56:03;14.0;;;7.1;;
58306;SDS011;44116;50.884;4.768;2024-02-16T11:58:02;15.4;;;7.0;;
58306;SDS011;44116;50.884;4.768;2024-02-16T12:02:02;13.3;;;6.9;;
58306;SDS011;44116;50.884;4.768;2024-02-16T12:04:02;16.2;;;7.7;;
58306;SDS011;44116;50.884;4.768;2024-02-16T12:06:02;17.8;;;8.0;;
58306;SDS011;44116;50.884;4.768;2024-02-16T12:08:01;14.7;;;8.1;;
58306;SDS011;44116;50.884;4.768;2024-02-16T12:10:02;15.0;;;7.7;;
58306;SDS011;44116;50.884;4.768;2024-02-16T12:12:01;13.8;;;7.6;;
58306;SDS011;44116;50.884;4.768;2024-02-16T12:14:01;11.9;;;7.5;;
58306;SDS011;44116;50.884;4.768;2024-02-16T12:16:01;16.6;;;7.4;;
58306;SDS011;44116;50.884;4.768;2024-02-16T12:18:01;16.7;;;7.7;;
58306;SDS011;44116;50.884;4.768;2024-02-16T12:20:00;19.0;;;7.6;;
58306;SDS011;44116;50.884;4.768;2024-02-16T12:22:00;15.8;;;7.9;;
58306;SDS011;44116;50.884;4.768;2024-02-16T12:23:59;13.7;;;8.4;;
58306;SDS011;44116;50.884;4.768;2024-02-16T12:26:00;15.0;;;7.8;;
58306;SDS011;44116;50.884;4.768;2024-02-16T12:27:59;16.6;;;8.0;;
58306;SDS011;44116;50.884;4.768;2024-02-16T12:29:59;16.1;;;7.6;;
58306;SDS011;44116;50.884;4.768;2024-02-16T12:31:59;14.2;;;8.3;;
58306;SDS011;44116;50.884;4.768;2024-02-16T12:35:58;13.2;;;7.5;;
58306;SDS011;44116;50.884;4.768;2024-02-16T12:37:58;14.0;;;8.3;;
58306;SDS011;44116;50.884;4.768;2024-02-16T12:39:58;10.9;;;7.3;;
58306;SDS011;44116;50.884;4.768;2024-02-16T12:42:00;12.4;;;7.7;;
58306;SDS011;44116;50.884;4.768;2024-02-16T12:43:57;14.1;;;7.5;;
58306;SDS011;44116;50.884;4.768;2024-02-16T12:45:57;12.2;;;7.3;;
58306;SDS011;44116;50.884;4.768;2024-02-16T12:47:57;15.3;;;7.8;;
58306;SDS011;44116;50.884;4.768;2024-02-16T12:49:57;12.8;;;7.0;;
58306;SDS011;44116;50.884;4.768;2024-02-16T12:51:57;16.2;;;6.8;;
58306;SDS011;44116;50.884;4.768;2024-02-16T12:53:56;13.3;;;6.4;;
58306;SDS011;44116;50.884;4.768;2024-02-16T12:55:56;8.7;;;5.7;;
58306;SDS011;44116;50.884;4.768;2024-02-16T12:57:56;9.8;;;5.3;;
58306;SDS011;44116;50.884;4.768;2024-02-16T12:59:56;7.7;;;5.4;;
58306;SDS011;44116;50.884;4.768;2024-02-16T13:01:55;9.1;;;5.1;;
58306;SDS011;44116;50.884;4.768;2024-02-16T13:03:55;7.0;;;4.7;;
58306;SDS011;44116;50.884;4.768;2024-02-16T13:05:55;7.2;;;4.5;;
58306;SDS011;44116;50.884;4.768;2024-02-16T13:07:55;6.5;;;4.3;;
58306;SDS011;44116;50.884;4.768;2024-02-16T13:13:54;6.1;;;4.2;;
58306;SDS011;44116;50.884;4.768;2024-02-16T13:15:54;6.3;;;4.4;;
58306;SDS011;44116;50.884;4.768;2024-02-16T13:19:53;6.0;;;4.1;;
58306;SDS011;44116;50.884;4.768;2024-02-16T13:21:53;8.0;;;4.3;;
58306;SDS011;44116;50.884;4.768;2024-02-16T13:23:53;6.7;;;4.5;;
58306;SDS011;44116;50.884;4.768;2024-02-16T13:25:53;5.8;;;5.0;;
58306;SDS011;44116;50.884;4.768;2024-02-16T13:27:53;8.5;;;5.2;;
58306;SDS011;44116;50.884;4.768;2024-02-16T13:29:52;6.7;;;4.8;;
58306;SDS011;44116;50.884;4.768;2024-02-16T13:31:52;6.5;;;4.6;;
58306;SDS011;44116;50.884;4.768;2024-02-16T13:33:53;7.8;;;5.1;;
58306;SDS011;44116;50.884;4.768;2024-02-16T13:35:53;6.9;;;5.2;;
58306;SDS011;44116;50.884;4.768;2024-02-16T13:37:52;7.1;;;5.4;;
58306;SDS011;44116;50.884;4.768;2024-02-16T13:39:51;7.6;;;5.3;;
58306;SDS011;44116;50.884;4.768;2024-02-16T13:41:51;10.0;;;6.0;;
58306;SDS011;44116;50.884;4.768;2024-02-16T13:45:52;11.1;;;6.5;;
58306;SDS011;44116;50.884;4.768;2024-02-16T13:47:50;7.5;;;5.3;;
58306;SDS011;44116;50.884;4.768;2024-02-16T13:49:50;9.1;;;5.9;;
58306;SDS011;44116;50.884;4.768;2024-02-16T13:53:49;7.9;;;6.0;;
58306;SDS011;44116;50.884;4.768;2024-02-16T13:57:49;8.2;;;5.4;;
58306;SDS011;44116;50.884;4.768;2024-02-16T13:59:49;7.2;;;6.0;;
58306;SDS011;44116;50.884;4.768;2024-02-16T14:01:49;7.3;;;5.6;;
58306;SDS011;44116;50.884;4.768;2024-02-16T14:03:49;8.2;;;5.9;;
58306;SDS011;44116;50.884;4.768;2024-02-16T14:05:48;6.5;;;4.8;;
58306;SDS011;44116;50.884;4.768;2024-02-16T14:07:48;7.7;;;6.1;;
58306;SDS011;44116;50.884;4.768;2024-02-16T14:09:48;8.6;;;6.2;;
58306;SDS011;44116;50.884;4.768;2024-02-16T14:11:47;10.1;;;7.0;;
58306;SDS011;44116;50.884;4.768;2024-02-16T14:15:47;9.3;;;8.0;;
58306;SDS011;44116;50.884;4.768;2024-02-16T14:17:47;9.4;;;7.9;;
58306;SDS011;44116;50.884;4.768;2024-02-16T14:19:46;10.8;;;8.8;;
58306;SDS011;44116;50.884;4.768;2024-02-16T14:21:46;11.2;;;9.0;;
58306;SDS011;44116;50.884;4.768;2024-02-16T14:23:46;10.7;;;9.2;;